Time;durP1;ratioP1;P1;durP2;ratioP2;P2;SDS_P1;SDS_P2;PMS_P1;PMS_P2;Temp;Humidity;BMP_temperature;BMP_pressure;BME280_temperature;BME280_humidity;BME280_pressure;Samples;Min_cycle;Max_cycle;Signal;HPM_P1;HPM_P2
2023/03/01 00:02:06;;;;;;;3.85;1.00;;;10.10;99.90;;;;;;5092552;28;20035;-69
2023/03/01 00:04:35;;;;;;;8.55;1.17;;;10.20;99.90;;;;;;5092226;28;20458;-69
2023/03/01 00:07:01;;;;;;;7.25;1.15;;;10.20;99.90;;;;;;5092235;28;20103;-68
2023/03/01 00:09:27;;;;;;;4.72;1.17;;;10.20;99.90;;;;;;5092198;28;20036;-68
2023/03/01 00:11:53;;;;;;;2.30;0.82;;;10.20;99.90;;;;;;5091955;28;20079;-68
2023/03/01 00:14:20;;;;;;;4.07;1.20;;;10.20;99.90;;;;;;5092192;28;20085;-68
2023/03/01 00:16:46;;;;;;;;;;;10.10;99.90;;;;;;5092677;28;20051;-68
2023/03/01 00:19:16;;;;;;;3.83;0.93;;;10.10;99.90;;;;;;5092114;28;19904;-68
2023/03/01 00:21:44;;;;;;;2.88;1.10;;;10.20;99.90;;;;;;5092200;28;20066;-68
2023/03/01 00:24:10;;;;;;;6.30;1.25;;;10.20;99.90;;;;;;5092050;28;20043;-68
2023/03/01 00:26:38;;;;;;;2.63;1.10;;;10.30;99.90;;;;;;5091541;28;20062;-68
2023/03/01 00:29:04;;;;;;;2.83;1.02;;;10.20;99.90;;;;;;5091731;28;20096;-67
2023/03/01 00:31:34;;;;;;;3.17;1.00;;;10.30;99.90;;;;;;5091696;28;20045;-68
2023/03/01 00:34:03;;;;;;;2.90;0.90;;;10.30;99.90;;;;;;5091696;28;20024;-68
2023/03/01 00:36:36;;;;;;;7.20;1.38;;;10.30;99.90;;;;;;5072945;28;20035;-67
2023/03/01 00:39:04;;;;;;;3.47;0.88;;;10.30;99.90;;;;;;5091437;28;20124;-67
2023/03/01 00:41:30;;;;;;;1.80;0.80;;;10.30;99.90;;;;;;5091312;28;20108;-67
2023/03/01 00:43:58;;;;;;;2.57;0.90;;;10.30;99.90;;;;;;5091013;28;20028;-67
2023/03/01 00:46:26;;;;;;;1.63;0.90;;;10.30;99.90;;;;;;5091175;28;20047;-67
2023/03/01 00:48:53;;;;;;;2.88;1.00;;;10.30;99.90;;;;;;5091535;28;20347;-68
2023/03/01 00:51:22;;;;;;;2.75;0.98;;;10.20;99.90;;;;;;5091266;28;20355;-68
2023/03/01 00:53:56;;;;;;;5.72;1.00;;;10.20;99.90;;;;;;5091202;28;20416;-67
2023/03/01 00:56:23;;;;;;;5.57;1.10;;;10.20;99.90;;;;;;5072576;28;20028;-68
2023/03/01 00:58:50;;;;;;;2.00;1.02;;;10.20;99.90;;;;;;5090636;28;20102;-67
2023/03/01 01:01:29;;;;;;;6.15;1.00;;;10.20;99.90;;;;;;5091449;28;20024;-69
2023/03/01 01:04:05;;;;;;;1.77;0.80;;;10.20;99.90;;;;;;5091489;28;20106;-68
2023/03/01 01:06:37;;;;;;;2.97;0.90;;;10.10;99.90;;;;;;5091432;28;20025;-67
2023/03/01 01:09:06;;;;;;;6.80;1.05;;;10.10;99.90;;;;;;5091556;28;20028;-67
2023/03/01 01:11:35;;;;;;;3.30;1.05;;;10.00;99.90;;;;;;5091123;28;20082;-67
2023/03/01 01:14:01;;;;;;;4.28;1.17;;;10.00;99.90;;;;;;5091535;28;20031;-67
2023/03/01 01:16:28;;;;;;;2.42;0.95;;;9.90;99.90;;;;;;5091154;28;20086;-69
2023/03/01 01:18:54;;;;;;;;;;;9.90;99.90;;;;;;5091627;28;20127;-68
2023/03/01 01:21:24;;;;;;;2.85;1.10;;;9.90;99.90;;;;;;5091595;28;20338;-68
2023/03/01 01:23:52;;;;;;;5.63;1.00;;;9.70;99.90;;;;;;5091166;28;20031;-68
2023/03/01 01:26:26;;;;;;;3.08;1.60;;;9.70;99.90;;;;;;5072608;28;20413;-67
2023/03/01 01:28:52;;;;;;;2.58;1.10;;;9.60;99.90;;;;;;5072979;28;20032;-68
2023/03/01 01:31:19;;;;;;;2.95;1.15;;;9.60;99.90;;;;;;5091215;28;20142;-68
2023/03/01 01:33:48;;;;;;;2.95;0.90;;;9.50;99.90;;;;;;5091231;28;20420;-65
2023/03/01 01:36:14;;;;;;;3.08;1.00;;;9.50;99.90;;;;;;5091210;28;20032;-66
2023/03/01 01:38:42;;;;;;;1.43;0.80;;;9.40;99.90;;;;;;5072528;28;20048;-67
2023/03/01 01:41:11;;;;;;;4.45;1.00;;;9.40;99.90;;;;;;5090887;28;20149;-67
2023/03/01 01:43:43;;;;;;;2.65;1.02;;;9.50;99.90;;;;;;5090854;28;20566;-66
2023/03/01 01:46:35;;;;;;;7.72;1.20;;;9.50;99.90;;;;;;5091115;28;20043;-67
2023/03/01 01:49:19;;;;;;;4.18;1.02;;;9.60;99.90;;;;;;5091201;28;20020;-68
2023/03/01 01:52:00;;;;;;;4.45;1.13;;;9.60;99.90;;;;;;5091247;28;20298;-67
2023/03/01 01:54:40;;;;;;;5.25;1.05;;;9.60;99.90;;;;;;5089582;28;20111;-68
2023/03/01 01:57:13;;;;;;;3.03;0.95;;;9.60;99.90;;;;;;5090729;28;20111;-67
2023/03/01 01:59:44;;;;;;;3.47;0.90;;;9.60;99.90;;;;;;5072537;28;20036;-68
2023/03/01 02:02:13;;;;;;;1.95;1.00;;;9.60;99.90;;;;;;5091323;28;20060;-68
2023/03/01 02:04:44;;;;;;;2.08;1.00;;;9.60;99.90;;;;;;5090848;28;20486;-68
2023/03/01 02:07:22;;;;;;;7.95;1.02;;;9.60;99.90;;;;;;5090837;28;20024;-68
2023/03/01 02:09:52;;;;;;;5.22;1.02;;;9.60;99.90;;;;;;5093236;28;20024;-67
2023/03/01 02:12:23;;;;;;;3.65;1.08;;;9.70;99.90;;;;;;5094510;28;20509;-67
2023/03/01 02:14:50;;;;;;;3.20;0.90;;;9.60;99.90;;;;;;5095195;28;20116;-68
2023/03/01 02:17:19;;;;;;;3.45;1.20;;;9.60;99.90;;;;;;5094509;28;20036;-68
2023/03/01 02:20:18;;;;;;;2.05;0.95;;;9.60;99.90;;;;;;5094750;28;20029;-65
2023/03/01 02:22:47;;;;;;;2.40;1.00;;;9.50;99.90;;;;;;5094734;28;20024;-68
2023/03/01 02:25:51;;;;;;;5.40;1.33;;;9.50;99.90;;;;;;5076162;28;20020;-68
2023/03/01 02:28:25;;;;;;;2.55;1.20;;;9.30;99.90;;;;;;5094775;28;20032;-67
2023/03/01 02:33:38;;;;;;;1.90;1.08;;;9.20;99.90;;;;;;5095010;28;20077;-68
2023/03/01 02:36:09;;;;;;;4.93;1.33;;;9.20;99.90;;;;;;5094478;28;20093;-68
2023/03/01 02:38:35;;;;;;;5.47;1.20;;;9.10;99.90;;;;;;5075744;28;20476;-68
2023/03/01 02:41:04;;;;;;;5.78;1.10;;;9.10;99.90;;;;;;5094280;28;20102;-68
2023/03/01 02:43:32;;;;;;;3.85;1.13;;;9.10;99.90;;;;;;5094149;28;20028;-68
2023/03/01 02:46:08;;;;;;;3.92;1.30;;;9.10;99.90;;;;;;5093576;28;20048;-67
2023/03/01 02:48:50;;;;;;;3.38;1.10;;;9.00;99.90;;;;;;5094441;28;20443;-68
2023/03/01 02:51:38;;;;;;;4.25;1.10;;;8.90;99.90;;;;;;5094552;28;20024;-69
2023/03/01 02:54:27;;;;;;;4.97;1.10;;;8.90;99.90;;;;;;5094279;28;20103;-68
2023/03/01 02:56:54;;;;;;;6.32;1.20;;;8.80;99.90;;;;;;5075432;28;20035;-67
2023/03/01 02:59:24;;;;;;;2.53;1.20;;;8.80;99.90;;;;;;5094183;28;20144;-68
2023/03/01 03:01:50;;;;;;;3.03;1.20;;;8.80;99.90;;;;;;5093941;28;20036;-67
2023/03/01 03:04:18;;;;;;;4.33;1.27;;;8.70;99.90;;;;;;5093754;28;20028;-67
2023/03/01 03:06:46;;;;;;;4.10;1.10;;;8.70;99.90;;;;;;5093302;28;20020;-67
2023/03/01 03:09:13;;;;;;;4.32;1.10;;;8.80;99.90;;;;;;5093596;28;20456;-68
2023/03/01 03:11:40;;;;;;;2.80;1.30;;;8.80;99.90;;;;;;5093621;28;20417;-68
2023/03/01 03:14:12;;;;;;;3.80;1.05;;;8.90;99.90;;;;;;5093320;28;20032;-67
2023/03/01 03:16:43;;;;;;;3.45;1.15;;;8.80;99.90;;;;;;5093205;28;20479;-68
2023/03/01 03:19:11;;;;;;;2.38;1.20;;;8.80;99.90;;;;;;5075659;28;20028;-67
2023/03/01 03:21:37;;;;;;;5.53;1.27;;;8.80;99.90;;;;;;5092449;28;20030;-67
2023/03/01 03:24:04;;;;;;;2.75;1.00;;;8.80;99.90;;;;;;5093449;28;20049;-67
2023/03/01 03:26:30;;;;;;;;;;;8.70;99.90;;;;;;5093191;28;20391;-67
2023/03/01 03:28:56;;;;;;;3.53;1.10;;;8.70;99.90;;;;;;5093078;28;19995;-67
2023/03/01 03:31:23;;;;;;;2.47;1.00;;;8.70;99.90;;;;;;5092803;28;20265;-67
2023/03/01 03:33:49;;;;;;;2.70;1.10;;;8.70;99.90;;;;;;5093395;28;20309;-67
2023/03/01 03:36:17;;;;;;;2.95;1.20;;;8.70;99.90;;;;;;5093260;28;20078;-67
2023/03/01 03:38:45;;;;;;;3.70;1.35;;;8.70;99.90;;;;;;5092852;28;20059;-68
2023/03/01 03:41:12;;;;;;;1.88;0.95;;;8.70;99.90;;;;;;5092610;28;20024;-67
2023/03/01 03:43:39;;;;;;;4.13;1.00;;;8.70;99.90;;;;;;5093197;28;20028;-66
2023/03/01 03:46:09;;;;;;;4.40;1.35;;;8.80;99.90;;;;;;5093030;28;20043;-67
2023/03/01 03:48:37;;;;;;;1.83;0.90;;;8.80;99.90;;;;;;5092567;28;20044;-68
2023/03/01 03:51:07;;;;;;;1.80;1.00;;;8.80;99.90;;;;;;5092695;28;20020;-67
2023/03/01 03:53:34;;;;;;;2.13;1.00;;;8.80;99.90;;;;;;5093111;28;20024;-68
2023/03/01 03:56:01;;;;;;;3.97;1.13;;;8.90;99.90;;;;;;5093015;28;20056;-68
2023/03/01 03:58:26;;;;;;;;;;;8.90;99.90;;;;;;5093854;28;20032;-68
2023/03/01 04:00:58;;;;;;;3.45;1.05;;;8.90;99.90;;;;;;5093112;28;20253;-68
2023/03/01 04:03:26;;;;;;;1.95;0.70;;;8.90;99.90;;;;;;5093070;28;20074;-66
2023/03/01 04:05:53;;;;;;;2.63;0.90;;;8.90;99.90;;;;;;5093108;28;20088;-67
2023/03/01 04:08:23;;;;;;;5.00;1.20;;;8.90;99.90;;;;;;5093117;28;20102;-68
2023/03/01 04:10:52;;;;;;;2.40;1.10;;;8.90;99.90;;;;;;5074918;28;20388;-68
2023/03/01 04:13:25;;;;;;;2.78;0.90;;;8.90;99.90;;;;;;5093052;28;20024;-68
2023/03/01 04:15:52;;;;;;;4.93;1.00;;;8.90;99.90;;;;;;5093252;28;20545;-68
2023/03/01 04:18:20;;;;;;;3.00;1.10;;;8.90;99.90;;;;;;5093329;28;20036;-67
2023/03/01 04:20:47;;;;;;;3.30;1.10;;;8.90;99.90;;;;;;5092733;28;20028;-68
2023/03/01 04:23:20;;;;;;;3.63;0.93;;;8.90;99.90;;;;;;5075225;28;20508;-68
2023/03/01 04:25:58;;;;;;;7.53;1.30;;;8.90;99.90;;;;;;5093193;28;20464;-68
2023/03/01 04:28:28;;;;;;;3.85;1.00;;;8.90;99.90;;;;;;5093002;28;20031;-67
2023/03/01 04:31:01;;;;;;;3.03;1.00;;;9.00;99.90;;;;;;5092830;28;20099;-67
2023/03/01 04:33:28;;;;;;;2.83;1.00;;;9.00;99.90;;;;;;5092698;28;20032;-68
2023/03/01 04:35:54;;;;;;;2.13;0.90;;;9.10;99.90;;;;;;5093183;28;20020;-67
2023/03/01 04:38:21;;;;;;;2.45;1.10;;;9.10;99.90;;;;;;5093111;28;20056;-68
2023/03/01 04:40:50;;;;;;;2.92;1.02;;;9.10;99.90;;;;;;5093555;28;20047;-67
2023/03/01 04:43:17;;;;;;;4.60;1.00;;;9.10;99.90;;;;;;5093087;28;20072;-68
2023/03/01 04:45:43;;;;;;;3.85;1.00;;;9.10;99.90;;;;;;5093225;28;20028;-67
2023/03/01 04:48:09;;;;;;;5.35;1.00;;;9.10;99.90;;;;;;5093146;28;20502;-67
2023/03/01 04:50:36;;;;;;;4.32;0.93;;;9.10;99.90;;;;;;5093492;28;20162;-68
2023/03/01 04:53:03;;;;;;;6.32;1.10;;;9.00;99.90;;;;;;5074650;28;20028;-67
2023/03/01 04:55:29;;;;;;;4.10;1.13;;;9.00;99.90;;;;;;5074518;28;20020;-67
2023/03/01 04:57:55;;;;;;;1.85;0.77;;;9.00;99.90;;;;;;5092650;28;20125;-68
2023/03/01 05:00:22;;;;;;;4.60;1.10;;;9.10;99.90;;;;;;5092890;28;20016;-68
2023/03/01 05:02:54;;;;;;;2.28;0.85;;;9.10;99.90;;;;;;5074812;28;20028;-66
2023/03/01 05:05:28;;;;;;;3.22;1.10;;;9.10;99.90;;;;;;5092893;28;20016;-68
2023/03/01 05:07:58;;;;;;;2.35;0.93;;;9.10;99.90;;;;;;5092553;28;20455;-68
2023/03/01 05:10:31;;;;;;;3.85;0.93;;;9.10;99.90;;;;;;5074953;28;20414;-68
2023/03/01 05:12:59;;;;;;;3.03;1.00;;;9.10;99.90;;;;;;5074193;28;20043;-68
2023/03/01 05:15:27;;;;;;;2.95;0.80;;;9.10;99.90;;;;;;5092926;28;20484;-68
2023/03/01 05:17:55;;;;;;;5.65;1.10;;;9.10;99.90;;;;;;5075035;28;20109;-67
2023/03/01 05:20:25;;;;;;;2.58;0.90;;;9.20;99.90;;;;;;5093207;28;20107;-68
2023/03/01 05:22:52;;;;;;;2.60;0.77;;;9.20;99.90;;;;;;5075875;28;20024;-67
2023/03/01 05:25:18;;;;;;;5.03;1.00;;;9.20;99.90;;;;;;5075481;28;20036;-65
2023/03/01 05:27:44;;;;;;;3.00;0.90;;;9.20;99.90;;;;;;5093010;28;20027;-68
2023/03/01 05:30:17;;;;;;;13.10;1.85;;;9.20;99.90;;;;;;5092977;28;20416;-68
2023/03/01 05:32:49;;;;;;;2.67;1.00;;;9.10;99.90;;;;;;5074824;28;20032;-68
2023/03/01 05:35:17;;;;;;;4.00;1.00;;;9.20;99.90;;;;;;5093114;28;20037;-67
2023/03/01 05:37:48;;;;;;;4.40;1.10;;;9.20;99.90;;;;;;5092535;28;20044;-67
2023/03/01 05:40:19;;;;;;;5.50;1.58;;;9.20;99.90;;;;;;5093177;28;20023;-68
2023/03/01 05:42:59;;;;;;;2.83;1.35;;;9.10;99.90;;;;;;5074360;28;20060;-68
2023/03/01 05:45:27;;;;;;;5.03;1.33;;;9.10;99.90;;;;;;5073900;28;20024;-67
2023/03/01 05:47:55;;;;;;;11.10;1.50;;;9.00;99.90;;;;;;5092445;28;20365;-67
2023/03/01 05:50:25;;;;;;;11.23;2.03;;;9.00;99.90;;;;;;5092585;28;20020;-68
2023/03/01 05:52:57;;;;;;;7.03;1.88;;;8.90;99.90;;;;;;5092897;28;20051;-68
2023/03/01 05:55:25;;;;;;;12.25;1.92;;;8.90;99.90;;;;;;5092740;28;20074;-67
2023/03/01 05:57:51;;;;;;;8.65;1.77;;;8.90;99.90;;;;;;5073978;28;20032;-68
2023/03/01 06:00:19;;;;;;;3.20;1.33;;;9.00;99.90;;;;;;5092512;28;20022;-63
2023/03/01 06:02:45;;;;;;;6.15;1.00;;;9.10;99.90;;;;;;5097252;28;20034;-69
2023/03/01 06:05:15;;;;;;;6.00;1.40;;;9.20;99.90;;;;;;5106144;28;20024;-69
2023/03/01 06:07:42;;;;;;;6.60;1.52;;;9.30;99.90;;;;;;5077583;28;20440;-69
2023/03/01 06:10:10;;;;;;;4.00;1.20;;;9.20;99.90;;;;;;5072200;28;20119;-69
2023/03/01 06:12:38;;;;;;;18.88;10.90;;;9.60;99.90;;;;;;5077405;28;20060;-65
2023/03/01 06:15:05;;;;;;;3.70;1.10;;;9.70;99.90;;;;;;5080351;28;20032;-67
2023/03/01 06:17:37;;;;;;;4.75;1.10;;;9.60;99.90;;;;;;5081589;28;20055;-66
2023/03/01 06:20:16;;;;;;;8.57;2.38;;;9.80;99.90;;;;;;5061650;28;20028;-67
2023/03/01 06:22:43;;;;;;;8.95;1.40;;;10.60;99.90;;;;;;5091822;28;20381;-69
2023/03/01 06:25:12;;;;;;;4.60;1.10;;;11.70;99.90;;;;;;5112225;28;20352;-69
2023/03/01 06:27:40;;;;;;;5.28;1.20;;;12.50;99.90;;;;;;5089421;28;20070;-70
2023/03/01 06:30:09;;;;;;;4.38;1.20;;;13.50;99.90;;;;;;5111545;28;20032;-70
2023/03/01 06:32:37;;;;;;;6.65;1.20;;;14.20;99.90;;;;;;5111208;28;20514;-70
2023/03/01 06:35:05;;;;;;;5.63;1.30;;;15.40;99.90;;;;;;5093636;28;20028;-70
2023/03/01 06:37:32;;;;;;;5.38;1.30;;;16.30;99.90;;;;;;5093257;28;20056;-70
2023/03/01 06:39:58;;;;;;;9.23;1.33;;;17.20;99.90;;;;;;5069642;28;20032;-70
2023/03/01 06:42:24;;;;;;;8.45;1.55;;;17.20;99.90;;;;;;5080983;28;20020;-66
2023/03/01 06:44:50;;;;;;;5.63;1.42;;;16.80;99.90;;;;;;5062768;28;20092;-71
2023/03/01 06:47:16;;;;;;;5.28;1.55;;;15.10;99.90;;;;;;5061051;28;20024;-71
2023/03/01 06:49:43;;;;;;;6.15;1.63;;;15.10;99.90;;;;;;5061049;28;20032;-70
2023/03/01 06:52:09;;;;;;;;;;;16.10;99.90;;;;;;5062585;28;20024;-68
2023/03/01 06:54:35;;;;;;;4.82;1.17;;;17.10;99.90;;;;;;5078915;28;19905;-71
2023/03/01 06:57:01;;;;;;;5.22;1.58;;;16.30;99.90;;;;;;5086376;28;20448;-71
2023/03/01 06:59:27;;;;;;;4.80;1.40;;;15.80;99.90;;;;;;5094399;28;20312;-71
2023/03/01 07:01:53;;;;;;;5.63;1.05;;;16.00;99.90;;;;;;5094340;28;20026;-73
2023/03/01 07:04:19;;;;;;;14.70;1.63;;;15.60;99.90;;;;;;5068684;28;20029;-71
2023/03/01 07:06:45;;;;;;;5.03;1.23;;;15.10;99.90;;;;;;5086179;28;20034;-70
2023/03/01 07:09:11;;;;;;;6.78;1.75;;;14.30;99.90;;;;;;5094251;28;20254;-70
2023/03/01 07:11:38;;;;;;;7.00;1.52;;;13.90;99.90;;;;;;5093602;28;20112;-74
2023/03/01 07:14:06;;;;;;;7.75;1.63;;;14.90;99.90;;;;;;5094384;28;20047;-73
2023/03/01 07:16:32;;;;;;;4.18;1.35;;;15.90;99.90;;;;;;5094175;28;20024;-75
2023/03/01 07:18:59;;;;;;;6.68;1.73;;;16.80;99.90;;;;;;5094288;28;20119;-75
2023/03/01 07:21:25;;;;;;;8.05;1.20;;;16.10;99.90;;;;;;5093941;28;20460;-77
2023/03/01 07:23:53;;;;;;;10.98;1.58;;;16.00;99.90;;;;;;5094772;28;20519;-77
2023/03/01 07:26:19;;;;;;;5.35;1.20;;;16.50;99.90;;;;;;5094864;28;20028;-74
2023/03/01 07:28:45;;;;;;;5.97;0.95;;;16.60;99.90;;;;;;5094422;28;20028;-76
2023/03/01 07:31:12;;;;;;;9.35;1.10;;;16.70;99.90;;;;;;5094380;28;20020;-76
2023/03/01 07:33:41;;;;;;;10.82;1.70;;;16.50;99.90;;;;;;5094713;28;20463;-76
2023/03/01 07:36:07;;;;;;;3.72;1.40;;;16.70;99.90;;;;;;5094286;28;20035;-76
2023/03/01 07:38:34;;;;;;;12.90;1.80;;;16.50;99.90;;;;;;5076059;28;20476;-75
2023/03/01 08:27:35;;;;;;;5.38;1.17;;;15.50;99.90;;;;;;4751747;27;11257160;-79
2023/03/01 08:30:03;;;;;;;2.53;1.00;;;15.50;99.90;;;;;;5130409;28;20490;-79
2023/03/01 08:32:29;;;;;;;5.53;1.20;;;15.60;99.90;;;;;;5130627;28;20031;-72
2023/03/01 08:34:57;;;;;;;8.52;1.27;;;15.00;99.90;;;;;;5130229;28;20088;-79
2023/03/01 08:37:23;;;;;;;9.82;1.85;;;15.40;99.90;;;;;;5129699;28;20091;-77
2023/03/01 08:39:50;;;;;;;8.93;1.20;;;15.60;99.90;;;;;;5129947;28;20019;-76
2023/03/01 08:42:16;;;;;;;18.60;2.20;;;15.00;99.90;;;;;;5129682;28;20296;-77
2023/03/01 08:44:47;;;;;;;44.63;4.93;;;15.50;99.90;;;;;;5129863;28;20588;-77
2023/03/01 08:47:13;;;;;;;6.65;1.63;;;15.80;99.90;;;;;;5129247;28;20092;-77
2023/03/01 08:49:39;;;;;;;20.15;2.25;;;15.50;99.90;;;;;;5129705;28;20060;-77
2023/03/01 08:52:06;;;;;;;23.00;2.13;;;15.90;99.90;;;;;;5129623;28;20027;-77
2023/03/01 08:54:32;;;;;;;6.47;1.38;;;15.90;99.90;;;;;;5129884;28;20077;-77
2023/03/01 08:57:01;;;;;;;5.25;1.30;;;15.30;99.90;;;;;;5129097;28;20069;-77
2023/03/01 08:59:27;;;;;;;7.20;1.58;;;15.00;99.90;;;;;;5129358;28;20039;-77
2023/03/01 09:01:53;;;;;;;9.13;1.20;;;15.00;99.90;;;;;;5129307;28;20031;-77
2023/03/01 09:04:19;;;;;;;9.93;3.28;;;15.10;99.90;;;;;;5129216;28;20088;-78
2023/03/01 09:06:45;;;;;;;9.65;1.55;;;15.70;99.90;;;;;;5129093;28;20055;-78
2023/03/01 09:09:15;;;;;;;10.23;2.13;;;15.80;99.90;;;;;;5130318;28;20378;-78
2023/03/01 09:11:43;;;;;;;15.50;2.13;;;15.70;99.90;;;;;;5129271;28;20023;-76
2023/03/01 09:14:09;;;;;;;5.68;1.52;;;15.60;99.90;;;;;;5129424;28;20421;-76
2023/03/01 09:16:36;;;;;;;17.48;2.03;;;15.60;99.90;;;;;;5129107;28;20051;-77
2023/03/01 09:19:03;;;;;;;6.57;1.42;;;15.50;99.90;;;;;;5128529;28;20454;-78
2023/03/01 09:21:29;;;;;;;3.78;1.10;;;15.40;99.90;;;;;;5128816;28;20043;-79
2023/03/01 09:23:56;;;;;;;5.33;1.23;;;15.00;99.90;;;;;;5128470;28;20408;-76
2023/03/01 09:26:23;;;;;;;9.13;1.30;;;15.10;99.90;;;;;;5128306;28;20042;-77
2023/03/01 09:28:54;;;;;;;9.60;1.42;;;15.00;99.90;;;;;;5128952;28;20467;-77
2023/03/01 09:31:24;;;;;;;7.03;1.20;;;14.70;99.90;;;;;;5129129;28;20024;-73
2023/03/01 09:33:54;;;;;;;7.32;1.40;;;14.50;99.90;;;;;;5128685;28;20034;-75
2023/03/01 09:36:25;;;;;;;8.57;1.75;;;14.50;99.90;;;;;;5128983;28;20031;-71
2023/03/01 09:38:52;;;;;;;8.18;1.55;;;14.80;99.90;;;;;;5115127;28;20032;-72
2023/03/01 09:41:32;;;;;;;6.68;1.63;;;15.10;99.90;;;;;;5114145;28;20035;-72
2023/03/01 09:44:15;;;;;;;6.57;1.10;;;15.00;99.90;;;;;;5114727;28;20069;-71
2023/03/01 09:46:45;;;;;;;9.75;1.33;;;15.20;99.90;;;;;;5096595;28;20039;-73
2023/03/01 09:49:30;;;;;;;16.00;1.92;;;15.00;99.90;;;;;;5114409;28;20016;-73
2023/03/01 09:52:19;;;;;;;5.25;1.63;;;15.00;99.90;;;;;;5114880;28;20129;-73
2023/03/01 09:54:49;;;;;;;7.57;1.70;;;15.00;99.90;;;;;;5095857;28;20448;-72
2023/03/01 09:57:25;;;;;;;9.57;1.15;;;14.90;99.90;;;;;;5114424;28;20024;-73
2023/03/01 10:00:20;;;;;;;13.68;1.85;;;15.10;99.90;;;;;;5114867;28;20035;-73
2023/03/01 10:02:49;;;;;;;9.52;1.75;;;15.30;99.90;;;;;;5114591;28;20027;-73
2023/03/01 10:05:30;;;;;;;7.30;1.48;;;15.40;99.90;;;;;;5114211;28;20032;-72
2023/03/01 10:08:19;;;;;;;8.52;1.73;;;15.50;99.90;;;;;;5114239;28;20024;-72
2023/03/01 10:11:06;;;;;;;10.95;1.25;;;15.30;99.90;;;;;;5114286;28;20055;-73
2023/03/01 10:14:13;;;;;;;9.27;1.10;;;15.30;99.90;;;;;;5112722;28;20032;-73
2023/03/01 10:17:04;;;;;;;10.30;1.38;;;15.30;99.90;;;;;;5095273;28;20042;-73
2023/03/01 10:19:45;;;;;;;12.48;1.85;;;15.40;99.90;;;;;;5114260;28;20093;-72
2023/03/01 10:22:29;;;;;;;10.93;1.60;;;15.10;99.90;;;;;;5114029;28;20023;-72
2023/03/01 10:24:58;;;;;;;8.27;1.50;;;15.10;99.90;;;;;;5114219;28;20047;-72
2023/03/01 10:27:36;;;;;;;9.45;1.45;;;15.30;99.90;;;;;;5112593;28;20055;-73
2023/03/01 10:30:16;;;;;;;8.90;1.40;;;15.60;99.90;;;;;;5113680;28;20114;-74
2023/03/01 10:32:43;;;;;;;15.00;2.00;;;15.80;99.90;;;;;;5113687;28;20074;-73
2023/03/01 10:35:17;;;;;;;10.43;1.40;;;15.60;99.90;;;;;;5113155;28;20066;-73
2023/03/01 10:38:02;;;;;;;14.38;2.55;;;15.50;99.90;;;;;;5113645;28;20020;-74
2023/03/01 10:40:28;;;;;;;18.38;2.75;;;15.40;99.90;;;;;;5094509;28;20478;-74
2023/03/01 10:42:59;;;;;;;16.60;2.42;;;15.70;99.90;;;;;;5112729;28;20039;-74
2023/03/01 10:45:31;;;;;;;17.80;1.77;;;15.90;99.90;;;;;;5112940;28;20020;-73
2023/03/01 10:48:26;;;;;;;19.88;2.75;;;15.80;99.90;;;;;;5112940;28;20339;-73
2023/03/01 10:51:07;;;;;;;18.98;1.63;;;15.70;99.90;;;;;;5111959;28;20019;-72
2023/03/01 10:53:34;;;;;;;19.65;2.55;;;15.80;99.90;;;;;;5112547;28;20045;-72
2023/03/01 10:56:13;;;;;;;13.45;2.33;;;15.90;99.90;;;;;;5112409;28;20037;-71
2023/03/01 10:59:00;;;;;;;13.88;2.03;;;16.00;99.90;;;;;;5092061;28;20071;-72
2023/03/01 11:01:34;;;;;;;18.50;2.03;;;15.90;99.90;;;;;;5090997;28;20066;-72
2023/03/01 11:04:18;;;;;;;22.10;2.40;;;16.10;99.90;;;;;;5092146;28;20072;-71
2023/03/01 11:06:59;;;;;;;18.23;2.03;;;16.20;99.90;;;;;;5091502;28;20070;-72
2023/03/01 11:09:29;;;;;;;16.70;2.20;;;15.70;99.90;;;;;;5091717;28;20023;-71
2023/03/01 11:11:59;;;;;;;17.77;2.30;;;15.70;99.90;;;;;;5073179;28;20133;-72
2023/03/01 11:14:46;;;;;;;12.70;2.20;;;15.70;99.90;;;;;;5074347;28;20028;-73
2023/03/01 11:17:28;;;;;;;20.13;2.38;;;16.00;99.90;;;;;;5092062;28;20165;-72
2023/03/01 11:20:13;;;;;;;13.52;2.22;;;15.40;99.90;;;;;;5092225;28;20443;-72
2023/03/01 11:22:55;;;;;;;15.40;1.85;;;15.20;99.90;;;;;;5075393;28;20521;-72
2023/03/01 11:25:29;;;;;;;23.55;2.15;;;15.40;99.90;;;;;;5073129;28;20030;-72
2023/03/01 11:27:57;;;;;;;22.25;2.30;;;15.90;99.90;;;;;;5091738;28;20139;-72
2023/03/01 11:30:39;;;;;;;15.07;2.10;;;16.00;99.90;;;;;;5091824;28;20081;-72
2023/03/01 11:33:08;;;;;;;18.13;2.40;;;16.00;99.90;;;;;;5092105;28;20472;-72
2023/03/01 11:36:03;;;;;;;24.85;2.20;;;15.90;99.90;;;;;;5091720;28;20023;-71
2023/03/01 11:38:36;;;;;;;21.70;2.10;;;15.90;99.90;;;;;;5091842;28;20085;-71
2023/03/01 11:41:17;;;;;;;20.48;2.40;;;15.70;99.90;;;;;;5057687;28;20047;-72
2023/03/01 11:44:15;;;;;;;19.88;2.60;;;15.90;99.90;;;;;;5091577;28;20032;-73
2023/03/01 11:47:16;;;;;;;19.58;2.65;;;16.00;99.90;;;;;;5090785;28;20044;-73
2023/03/01 11:50:10;;;;;;;16.80;1.63;;;15.90;99.90;;;;;;4989154;28;20034;-72
2023/03/01 11:53:00;;;;;;;30.52;2.83;;;16.00;99.90;;;;;;4990331;28;20086;-72
2023/03/01 11:56:02;;;;;;;25.90;2.75;;;16.00;99.90;;;;;;4990542;28;20030;-73
2023/03/01 11:58:40;;;;;;;26.80;3.35;;;15.90;99.90;;;;;;4991825;28;20057;-73
2023/03/01 12:01:12;;;;;;;26.50;2.22;;;15.90;99.90;;;;;;5009470;28;20459;-73
2023/03/01 12:04:12;;;;;;;44.15;4.20;;;16.00;99.90;;;;;;5008467;28;20034;-72
2023/03/01 12:06:55;;;;;;;38.17;2.33;;;16.30;99.90;;;;;;5008974;28;20190;-71
2023/03/01 12:09:38;;;;;;;30.58;3.45;;;16.40;99.90;;;;;;5009345;28;20440;-73
2023/03/01 12:12:38;;;;;;;29.83;3.55;;;16.60;99.90;;;;;;5008798;28;20030;-73
2023/03/01 12:15:20;;;;;;;35.25;3.42;;;16.50;99.90;;;;;;5008374;28;20580;-73
2023/03/01 12:18:12;;;;;;;42.17;3.78;;;16.20;99.90;;;;;;5009477;28;20036;-72
2023/03/01 12:21:01;;;;;;;27.73;2.97;;;16.10;99.90;;;;;;5009555;28;20041;-73
2023/03/01 12:24:01;;;;;;;32.72;2.83;;;15.90;99.90;;;;;;5009629;28;20044;-73
2023/03/01 12:26:32;;;;;;;26.95;2.42;;;15.70;99.90;;;;;;5093230;28;20068;-73
2023/03/01 12:29:29;;;;;;;27.38;3.22;;;15.70;99.90;;;;;;5094086;28;20032;-74
2023/03/01 12:32:02;;;;;;;25.38;3.33;;;16.00;99.90;;;;;;5112509;28;20024;-74
2023/03/01 12:34:50;;;;;;;22.20;2.67;;;16.00;99.90;;;;;;5112314;28;20088;-72
2023/03/01 12:37:29;;;;;;;19.23;2.28;;;16.30;99.90;;;;;;5112534;28;20019;-67
2023/03/01 12:40:23;;;;;;;22.42;1.85;;;16.40;99.90;;;;;;5091984;28;20525;-65
2023/03/01 12:43:01;;;;;;;24.15;3.58;;;16.40;99.90;;;;;;5103989;28;20027;-66
2023/03/01 12:45:54;;;;;;;14.90;1.80;;;16.50;99.90;;;;;;5105196;28;20039;-69
2023/03/01 12:48:57;;;;;;;22.98;2.20;;;16.40;99.90;;;;;;5093180;28;20095;-72
2023/03/01 12:51:26;;;;;;;16.73;1.75;;;16.60;99.90;;;;;;5111961;28;20031;-72
2023/03/01 12:53:57;;;;;;;14.15;1.42;;;16.70;99.90;;;;;;5112039;28;20106;-72
2023/03/01 12:56:33;;;;;;;15.88;1.83;;;16.70;99.90;;;;;;5112500;28;20023;-72
2023/03/01 12:59:25;;;;;;;22.37;2.13;;;16.70;99.90;;;;;;5093424;28;20472;-72
2023/03/01 13:02:24;;;;;;;11.93;1.60;;;16.70;99.90;;;;;;5111414;28;20479;-71
2023/03/01 13:05:17;;;;;;;16.42;1.65;;;16.00;99.90;;;;;;5112453;28;20023;-72
2023/03/01 13:08:05;;;;;;;13.48;1.58;;;15.90;99.90;;;;;;5112650;28;20055;-73
2023/03/01 13:10:43;;;;;;;11.60;1.60;;;16.20;99.90;;;;;;5112112;28;20023;-72
2023/03/01 13:13:24;;;;;;;9.63;1.55;;;16.20;99.90;;;;;;5095511;28;20031;-72
2023/03/01 13:15:55;;;;;;;9.45;1.65;;;16.10;99.90;;;;;;5116004;28;20028;-72
2023/03/01 13:18:25;;;;;;;11.85;1.52;;;16.20;99.90;;;;;;5116592;28;20051;-72
2023/03/01 13:20:59;;;;;;;8.73;1.40;;;16.30;99.90;;;;;;5116376;28;20020;-72
2023/03/01 13:23:27;;;;;;;11.45;1.75;;;16.20;99.90;;;;;;5116266;28;20039;-72
2023/03/01 13:26:17;;;;;;;13.48;1.70;;;16.30;99.90;;;;;;5097826;28;20031;-72
2023/03/01 13:28:49;;;;;;;11.23;1.75;;;16.40;99.90;;;;;;5075342;28;20043;-72
2023/03/01 13:31:23;;;;;;;15.93;1.95;;;16.30;99.90;;;;;;5076088;28;20484;-72
2023/03/01 13:34:52;;;;;;;11.48;1.80;;;16.30;99.90;;;;;;5075448;28;20040;-72
2023/03/01 13:37:22;;;;;;;13.02;1.50;;;16.20;99.90;;;;;;5016815;28;20104;-72
2023/03/01 13:39:48;;;;;;;7.75;1.27;;;15.80;99.90;;;;;;5033720;28;20048;-72
2023/03/01 13:42:40;;;;;;;12.32;1.58;;;15.80;99.90;;;;;;5033027;28;20524;-69
2023/03/01 13:45:19;;;;;;;7.72;1.20;;;15.90;99.90;;;;;;5033484;28;20034;-72
2023/03/01 13:47:48;;;;;;;9.63;1.92;;;15.90;99.90;;;;;;5033126;28;20037;-72
2023/03/01 13:50:24;;;;;;;10.38;1.30;;;16.00;99.90;;;;;;5033051;28;20353;-72
2023/03/01 13:52:59;;;;;;;8.10;1.63;;;15.90;99.90;;;;;;5033128;28;20106;-72
2023/03/01 13:55:54;;;;;;;12.38;1.60;;;15.80;99.90;;;;;;5033003;28;20057;-72
2023/03/01 13:58:29;;;;;;;11.88;1.60;;;15.70;99.90;;;;;;4936104;29;20175;-72
2023/03/01 14:01:00;;;;;;;11.50;1.90;;;15.90;99.90;;;;;;4954309;29;20047;-72
2023/03/01 14:03:27;;;;;;;11.45;1.63;;;16.00;99.90;;;;;;4954878;29;20035;-72
2023/03/01 14:06:19;;;;;;;6.35;1.20;;;15.80;99.90;;;;;;4954424;29;20095;-72
2023/03/01 14:08:50;;;;;;;12.07;1.65;;;15.70;99.90;;;;;;4993920;28;20505;-71